Sao Pedro do Sul, Brazil
Current Conditions -  °F | °C
As of 4:00 PM on Thursday 27 Nov 2014 (Local Time) from SBSM Reporting Station
Broken Clouds Broken Clouds  
Wind Chill: 82°   Ceiling: 3300
Heat Index: 84°   Visibility: 6mi
Dew Point: 64°   Wind: 12mph
Humidity: 54%   Direction: 130°SE
Pressure: 29.91"   Gusts: NA
Location:  29.62°S, 54.18°W
Report Text: SBSM 271800Z 13010KT 100V160 9999 BKN033 FEW035TCU 28/18 Q1013
Loading
Personal Weather Stations






























Interactive Weather Map New forecast layout! Learn more

10-Day Weather Forecast

Advertisements
Track Severe Weather on mobile